createdAt,value
2022-12-11T00:03:54.872Z,95385.22
2022-12-11T00:08:07.441Z,95395.72
2022-12-11T00:12:19.765Z,95385.31
2022-12-11T00:16:32.144Z,95394.06
2022-12-11T00:20:44.702Z,95383.56
2022-12-11T00:24:57.002Z,95380.88
2022-12-11T00:29:15.183Z,95389.53
2022-12-11T00:33:28.119Z,95390.44
2022-12-11T00:37:40.410Z,95373.72
2022-12-11T00:41:52.693Z,95381.03
2022-12-11T00:46:05.385Z,95389.53
2022-12-11T00:50:17.717Z,95392.31
2022-12-11T00:54:30.191Z,95398.50
2022-12-11T00:58:42.632Z,95394.31
2022-12-11T01:02:54.945Z,95400.19
2022-12-11T01:07:07.244Z,95390.22
2022-12-11T01:11:19.501Z,95391.16
2022-12-11T01:15:41.855Z,95391.34
2022-12-11T01:19:55.594Z,95405.59
2022-12-11T01:24:07.882Z,95388.75
2022-12-11T01:28:20.103Z,95392.28
2022-12-11T01:32:33.457Z,95421.13
2022-12-11T01:36:45.852Z,95410.13
2022-12-11T01:40:58.096Z,95425.53
2022-12-11T01:45:24.709Z,95433.72
2022-12-11T01:49:41.132Z,95431.84
2022-12-11T01:54:01.424Z,95432.19
2022-12-11T01:58:14.235Z,95433.66
2022-12-11T02:02:32.142Z,95437.09
2022-12-11T02:06:53.080Z,95416.63
2022-12-11T02:11:16.729Z,95428.34
2022-12-11T02:15:38.661Z,95423.19
2022-12-11T02:20:22.486Z,95415.72
2022-12-11T02:25:04.475Z,95411.31
2022-12-11T02:29:45.092Z,95409.06
2022-12-11T02:34:16.658Z,95416.38
2022-12-11T02:38:36.859Z,95400.47
2022-12-11T02:42:51.301Z,95404.38
2022-12-11T02:47:06.615Z,95412.78
2022-12-11T02:51:25.478Z,95415.81
2022-12-11T02:55:39.783Z,95411.00
2022-12-11T02:59:52.085Z,95416.59
2022-12-11T03:04:04.382Z,95418.44
2022-12-11T03:08:18.251Z,95422.25
2022-12-11T03:12:33.394Z,95433.19
2022-12-11T03:17:00.787Z,95424.69
2022-12-11T03:21:24.849Z,95431.84
2022-12-11T03:26:00.177Z,95420.53
2022-12-11T03:30:17.473Z,95429.31
2022-12-11T03:34:43.269Z,95436.22
2022-12-11T03:39:24.946Z,95432.78
2022-12-11T03:43:39.637Z,95442.41
2022-12-11T03:47:54.554Z,95444.50
2022-12-11T03:52:09.138Z,95437.16
2022-12-11T03:56:22.964Z,95432.75
2022-12-11T04:00:35.409Z,95432.19
2022-12-11T04:04:47.644Z,95433.22
2022-12-11T04:09:04.682Z,95442.03
2022-12-11T04:13:16.951Z,95438.94
2022-12-11T04:17:56.104Z,95445.06
2022-12-11T04:22:27.119Z,95438.16
2022-12-11T04:26:39.394Z,95429.38
2022-12-11T04:30:52.107Z,95435.97
2022-12-11T04:35:05.401Z,95437.38
2022-12-11T04:39:18.132Z,95437.88
2022-12-11T04:43:30.504Z,95426.63
2022-12-11T04:47:43.050Z,95440.44
2022-12-11T04:51:55.266Z,95421.78
2022-12-11T04:56:11.752Z,95428.00
2022-12-11T05:00:33.982Z,95430.69
2022-12-11T05:04:46.206Z,95424.06
2022-12-11T05:08:58.634Z,95416.16
2022-12-11T05:13:10.988Z,95427.66
2022-12-11T05:17:23.767Z,95419.25
2022-12-11T05:21:36.187Z,95420.38
2022-12-11T05:25:59.010Z,95402.34
2022-12-11T05:30:11.631Z,95420.75
2022-12-11T05:34:23.885Z,95405.88
2022-12-11T05:38:36.213Z,95394.56
2022-12-11T05:42:48.453Z,95403.66
2022-12-11T05:47:00.778Z,95406.41
2022-12-11T05:51:14.446Z,95423.94
2022-12-11T05:55:26.751Z,95414.81
2022-12-11T05:59:39.307Z,95404.66
2022-12-11T06:03:51.886Z,95421.00
2022-12-11T06:08:04.287Z,95417.88
2022-12-11T06:12:16.582Z,95403.97
2022-12-11T06:16:28.939Z,95409.91
2022-12-11T06:20:41.284Z,95399.22
2022-12-11T06:24:53.564Z,95404.34
2022-12-11T06:29:09.181Z,95413.03
2022-12-11T06:33:26.257Z,95414.81
2022-12-11T06:37:39.403Z,95417.88
2022-12-11T06:41:52.272Z,95410.56
2022-12-11T06:46:06.745Z,95420.22
2022-12-11T06:50:20.986Z,95413.53
2022-12-11T06:54:38.209Z,95402.28
2022-12-11T06:58:50.802Z,95406.63
2022-12-11T07:03:03.197Z,95409.59
2022-12-11T07:07:15.506Z,95403.91
2022-12-11T07:11:27.869Z,95398.31
2022-12-11T07:15:40.609Z,95411.97
2022-12-11T07:19:53.033Z,95405.19
2022-12-11T07:24:05.765Z,95417.94
2022-12-11T07:28:18.076Z,95423.81
2022-12-11T07:32:30.562Z,95424.78
2022-12-11T07:36:44.353Z,95429.97
2022-12-11T07:40:56.871Z,95430.59
2022-12-11T07:45:09.688Z,95443.03
2022-12-11T07:49:22.281Z,95435.16
2022-12-11T07:53:34.539Z,95430.00
2022-12-11T07:57:46.936Z,95435.34
2022-12-11T08:01:59.330Z,95438.72
2022-12-11T08:06:12.747Z,95437.81
2022-12-11T08:10:25.142Z,95429.91
2022-12-11T08:14:37.755Z,95443.25
2022-12-11T08:18:51.295Z,95446.44
2022-12-11T08:23:03.663Z,95443.94
2022-12-11T08:27:27.501Z,95451.13
2022-12-11T08:31:41.664Z,95443.63
2022-12-11T08:35:55.183Z,95456.16
2022-12-11T08:40:08.399Z,95451.38
2022-12-11T08:44:20.760Z,95456.31
2022-12-11T08:48:34.227Z,95464.34
2022-12-11T08:52:46.552Z,95450.25
2022-12-11T08:56:59.567Z,95467.16
2022-12-11T09:01:16.635Z,95461.75
2022-12-11T09:05:35.896Z,95460.63
2022-12-11T09:09:48.257Z,95457.03
2022-12-11T09:14:06.906Z,95450.06
2022-12-11T09:18:20.073Z,95451.00
2022-12-11T09:22:43.673Z,95461.06
2022-12-11T09:26:56.012Z,95451.75
2022-12-11T09:31:12.841Z,95460.25
2022-12-11T09:35:25.130Z,95445.84
2022-12-11T09:39:37.433Z,95447.97
2022-12-11T09:44:11.290Z,95455.69
2022-12-11T09:48:26.588Z,95446.72
2022-12-11T09:52:58.772Z,95446.31
2022-12-11T09:57:21.083Z,95440.66
2022-12-11T10:01:43.812Z,95427.97
2022-12-11T10:06:16.274Z,95438.19
2022-12-11T10:10:35.689Z,95429.63
2022-12-11T10:15:15.746Z,95434.84
2022-12-11T10:19:31.846Z,95430.75
2022-12-11T10:23:51.665Z,95422.44
2022-12-11T10:28:14.068Z,95412.38
2022-12-11T10:32:36.756Z,95413.81
2022-12-11T10:36:49.194Z,95395.84
2022-12-11T10:41:14.712Z,95398.84
2022-12-11T10:45:27.131Z,95387.72
2022-12-11T10:49:43.878Z,95407.03
2022-12-11T10:54:04.081Z,95394.06
2022-12-11T10:58:34.692Z,95390.75
2022-12-11T11:02:47.165Z,95384.50
2022-12-11T11:07:33.992Z,95380.69
2022-12-11T11:11:56.420Z,95371.41
2022-12-11T11:16:17.464Z,95370.16
2022-12-11T11:20:32.294Z,95360.78
2022-12-11T11:24:54.971Z,95364.88
2022-12-11T11:29:07.975Z,95349.31
2022-12-11T11:33:22.911Z,95340.31
2022-12-11T11:37:36.067Z,95336.38
2022-12-11T11:42:01.400Z,95342.63
2022-12-11T11:46:37.170Z,95326.94
2022-12-11T11:50:51.427Z,95322.94
2022-12-11T11:55:21.670Z,95323.97
2022-12-11T11:59:42.003Z,95330.78
2022-12-11T12:03:54.937Z,95321.66
2022-12-11T12:08:26.289Z,95323.81
2022-12-11T12:12:54.291Z,95323.47
2022-12-11T12:17:06.586Z,95311.81
2022-12-11T12:21:36.321Z,95318.88
2022-12-11T12:26:11.557Z,95311.31
2022-12-11T12:30:24.368Z,95311.59
2022-12-11T12:34:56.400Z,95315.88
2022-12-11T12:39:14.836Z,95315.31
2022-12-11T12:43:53.523Z,95324.22
2022-12-11T12:48:05.922Z,95313.50
2022-12-11T12:52:32.822Z,95300.34
2022-12-11T12:56:47.801Z,95309.41
2022-12-11T13:01:15.220Z,95304.94
2022-12-11T13:05:30.571Z,95302.19
2022-12-11T13:09:43.127Z,95291.47
2022-12-11T13:14:07.131Z,95294.53
2022-12-11T13:18:40.072Z,95298.50
2022-12-11T13:23:08.594Z,95313.84
2022-12-11T13:27:33.124Z,95315.78
2022-12-11T13:31:46.297Z,95320.81
2022-12-11T13:36:30.671Z,95318.34
2022-12-11T13:40:45.213Z,95326.03
2022-12-11T13:44:58.150Z,95319.00
2022-12-11T13:49:22.136Z,95323.75
2022-12-11T13:53:34.656Z,95308.59
2022-12-11T13:57:47.305Z,95316.97
2022-12-11T14:02:05.801Z,95312.03
2022-12-11T14:06:19.285Z,95319.50
2022-12-11T14:10:33.403Z,95314.19
2022-12-11T14:14:58.120Z,95314.88
2022-12-11T14:19:11.807Z,95312.91
2022-12-11T14:23:29.751Z,95316.56
2022-12-11T14:27:52.472Z,95323.22
2022-12-11T14:32:07.385Z,95316.44
2022-12-11T14:36:20.483Z,95321.06
2022-12-11T14:40:39.735Z,95322.56
2022-12-11T14:44:55.214Z,95318.25
2022-12-11T14:49:33.920Z,95327.66
2022-12-11T14:53:50.090Z,95321.63
2022-12-11T14:58:13.833Z,95327.47
2022-12-11T15:02:37.349Z,95330.19
2022-12-11T15:06:51.676Z,95336.28
2022-12-11T15:11:25.196Z,95325.44
2022-12-11T15:15:48.496Z,95332.78
2022-12-11T15:20:21.169Z,95328.34
2022-12-11T15:24:47.276Z,95334.16
2022-12-11T15:29:01.335Z,95334.97
2022-12-11T15:33:13.609Z,95324.94
2022-12-11T15:37:32.637Z,95329.78
2022-12-11T15:41:45.161Z,95334.66
2022-12-11T15:46:05.253Z,95334.78
2022-12-11T15:50:18.646Z,95330.78
2022-12-11T15:54:40.927Z,95331.34
2022-12-11T15:58:53.272Z,95337.22
2022-12-11T16:03:05.634Z,95344.13
2022-12-11T16:07:21.564Z,95348.13
2022-12-11T16:11:33.908Z,95346.31
2022-12-11T16:15:48.485Z,95358.69
2022-12-11T16:20:00.968Z,95361.03
2022-12-11T16:24:13.252Z,95350.09
2022-12-11T16:28:25.637Z,95366.31
2022-12-11T16:32:37.955Z,95366.59
2022-12-11T16:36:58.899Z,95355.91
2022-12-11T16:41:11.466Z,95362.38
2022-12-11T16:45:26.423Z,95360.91
2022-12-11T16:49:38.781Z,95351.22
2022-12-11T16:53:51.106Z,95350.84
2022-12-11T16:58:03.436Z,95359.03
2022-12-11T17:02:16.289Z,95365.59
2022-12-11T17:06:30.985Z,95355.25
2022-12-11T17:10:43.364Z,95357.88
2022-12-11T17:14:57.573Z,95367.88
2022-12-11T17:19:10.260Z,95362.84
2022-12-11T17:23:32.819Z,95362.81
2022-12-11T17:27:45.661Z,95365.53
2022-12-11T17:32:08.064Z,95364.31
2022-12-11T17:36:22.897Z,95363.31
2022-12-11T17:40:35.362Z,95372.00
2022-12-11T17:44:47.686Z,95362.97
2022-12-11T17:49:01.028Z,95372.16
2022-12-11T17:53:15.271Z,95368.63
2022-12-11T17:57:27.565Z,95367.50
2022-12-11T18:01:39.894Z,95370.69
2022-12-11T18:05:54.677Z,95381.41
2022-12-11T18:10:07.200Z,95379.91
2022-12-11T18:14:29.568Z,95395.53
2022-12-11T18:18:41.936Z,95379.63
2022-12-11T18:23:02.690Z,95385.41
2022-12-11T18:27:15.913Z,95378.97
2022-12-11T18:31:28.246Z,95391.25
2022-12-11T18:35:42.053Z,95413.84
2022-12-11T18:39:54.373Z,95393.47
2022-12-11T18:44:09.709Z,95394.78
2022-12-11T18:48:22.507Z,95388.75
2022-12-11T18:52:35.540Z,95403.41
2022-12-11T18:56:47.872Z,95393.53
2022-12-11T19:01:00.697Z,95401.47
2022-12-11T19:05:13.678Z,95407.19
2022-12-11T19:09:26.691Z,95398.81
2022-12-11T19:13:39.413Z,95407.78
2022-12-11T19:17:52.388Z,95403.41
2022-12-11T19:22:05.045Z,95398.31
2022-12-11T19:26:20.213Z,95404.31
2022-12-11T19:30:49.874Z,95399.84
2022-12-11T19:35:02.155Z,95396.72
2022-12-11T19:39:17.200Z,95399.75
2022-12-11T19:43:39.582Z,95400.56
2022-12-11T19:47:52.033Z,95401.06
2022-12-11T19:52:05.382Z,95399.50
2022-12-11T19:56:19.109Z,95404.25
2022-12-11T20:00:31.463Z,95408.94
2022-12-11T20:04:43.801Z,95405.22
2022-12-11T20:08:56.187Z,95405.25
2022-12-11T20:13:08.846Z,95406.47
2022-12-11T20:17:21.315Z,95395.22
2022-12-11T20:21:33.680Z,95403.75
2022-12-11T20:25:46.143Z,95403.84
2022-12-11T20:29:58.471Z,95409.25
2022-12-11T20:34:10.885Z,95413.84
2022-12-11T20:38:23.210Z,95400.44
2022-12-11T20:42:36.510Z,95407.38
2022-12-11T20:46:57.000Z,95395.81
2022-12-11T20:51:11.278Z,95418.06
2022-12-11T20:55:30.604Z,95409.88
2022-12-11T20:59:44.183Z,95405.38
2022-12-11T21:04:01.624Z,95406.09
2022-12-11T21:08:23.955Z,95401.47
2022-12-11T21:12:36.573Z,95401.50
2022-12-11T21:16:49.815Z,95405.56
2022-12-11T21:21:02.227Z,95399.53
2022-12-11T21:25:14.665Z,95386.09
2022-12-11T21:29:30.317Z,95394.50
2022-12-11T21:33:43.487Z,95397.63
2022-12-11T21:37:55.795Z,95389.75
2022-12-11T21:42:18.095Z,95387.84
2022-12-11T21:46:30.577Z,95390.66
2022-12-11T21:50:43.755Z,95401.75
2022-12-11T21:54:57.366Z,95386.81
2022-12-11T21:59:10.216Z,95406.09
2022-12-11T22:03:24.064Z,95383.78
2022-12-11T22:07:36.358Z,95388.47
2022-12-11T22:11:50.695Z,95396.19
2022-12-11T22:16:06.526Z,95393.47
2022-12-11T22:20:19.391Z,95394.28
2022-12-11T22:24:32.108Z,95405.56
2022-12-11T22:28:44.494Z,95399.72
2022-12-11T22:32:56.806Z,95400.69
2022-12-11T22:37:09.520Z,95403.09
2022-12-11T22:41:30.376Z,95402.31
2022-12-11T22:45:42.760Z,95405.38
2022-12-11T22:49:55.272Z,95398.00
2022-12-11T22:54:07.551Z,95398.81
2022-12-11T22:58:21.893Z,95395.44
2022-12-11T23:02:34.524Z,95393.47
2022-12-11T23:06:53.252Z,95376.22
2022-12-11T23:11:13.014Z,95406.34
2022-12-11T23:19:54.745Z,95383.31
2022-12-11T23:24:07.796Z,95392.56
2022-12-11T23:28:20.626Z,95404.06
2022-12-11T23:32:42.907Z,95398.25
2022-12-11T23:36:55.182Z,95398.22
2022-12-11T23:41:09.029Z,95397.97
2022-12-11T23:45:21.928Z,95392.59
2022-12-11T23:49:34.341Z,95400.34
2022-12-11T23:53:47.414Z,95409.66
2022-12-11T23:57:59.718Z,95409.25
